Time;durP1;ratioP1;P1;durP2;ratioP2;P2;SDS_P1;SDS_P2;PMS_P1;PMS_P2;Temp;Humidity;BMP_temperature;BMP_pressure;BME280_temperature;BME280_humidity;BME280_pressure;Samples;Min_cycle;Max_cycle;Signal;HPM_P1;HPM_P2
2022/03/12 00:01:13;;;;;;;3.33;3.03;;;0.60;51.70;;;;;;5035781;28;20322;-83
2022/03/12 00:03:42;;;;;;;3.23;2.87;;;0.60;51.70;;;;;;5036298;28;20206;-83
2022/03/12 00:06:10;;;;;;;3.30;2.93;;;0.50;51.50;;;;;;5036320;28;20298;-83
2022/03/12 00:08:42;;;;;;;3.27;2.97;;;0.60;51.90;;;;;;5036119;28;20202;-83
2022/03/12 00:11:12;;;;;;;3.83;3.40;;;0.60;51.70;;;;;;5036143;28;20241;-83
2022/03/12 00:13:40;;;;;;;3.10;2.70;;;0.60;51.60;;;;;;5036142;28;20245;-83
2022/03/12 00:16:13;;;;;;;3.20;2.90;;;0.60;51.70;;;;;;5038311;28;20229;-83
2022/03/12 00:18:42;;;;;;;6.43;3.60;;;0.60;51.60;;;;;;5036310;28;20233;-83
2022/03/12 00:21:12;;;;;;;4.27;3.20;;;0.60;51.20;;;;;;5035579;28;20234;-83
2022/03/12 00:23:49;;;;;;;2.93;2.57;;;0.50;51.40;;;;;;5035774;28;20194;-83
2022/03/12 00:26:18;;;;;;;3.00;2.80;;;0.60;52.40;;;;;;5035413;28;20222;-83
2022/03/12 00:28:47;;;;;;;3.47;2.67;;;0.50;52.10;;;;;;5035592;28;20230;-83
2022/03/12 00:31:17;;;;;;;5.07;3.30;;;0.50;51.70;;;;;;5035506;28;20257;-83
2022/03/12 00:33:45;;;;;;;5.83;3.20;;;0.40;51.90;;;;;;5036889;28;20207;-83
2022/03/12 00:36:16;;;;;;;7.57;3.47;;;0.40;52.10;;;;;;5035403;28;20266;-83
2022/03/12 00:38:45;;;;;;;3.47;2.90;;;0.40;52.10;;;;;;5035426;28;20234;-83
2022/03/12 00:41:14;;;;;;;3.47;3.17;;;0.40;51.90;;;;;;5034817;28;20242;-83
2022/03/12 00:43:43;;;;;;;9.47;2.93;;;0.40;52.20;;;;;;5035279;28;20233;-84
2022/03/12 00:46:12;;;;;;;3.40;3.10;;;0.30;52.30;;;;;;5035591;28;20241;-83
2022/03/12 00:48:42;;;;;;;3.53;3.13;;;0.30;52.20;;;;;;5035516;28;20207;-83
2022/03/12 00:51:11;;;;;;;2.47;2.33;;;0.20;52.10;;;;;;5035313;28;20324;-83
2022/03/12 00:53:41;;;;;;;5.33;3.33;;;0.20;52.80;;;;;;5035165;28;20269;-83
2022/03/12 00:56:12;;;;;;;2.63;2.43;;;0.20;52.50;;;;;;5035164;28;20257;-83
2022/03/12 00:58:45;;;;;;;5.00;2.90;;;0.10;52.00;;;;;;5034862;28;20306;-83
2022/03/12 01:01:14;;;;;;;3.27;2.60;;;0.10;52.80;;;;;;5034619;28;20222;-83
2022/03/12 01:03:44;;;;;;;4.47;3.20;;;0.10;52.70;;;;;;5035113;28;20345;-83
2022/03/12 01:06:18;;;;;;;2.80;2.50;;;0.20;52.40;;;;;;5034975;28;20206;-83
2022/03/12 01:08:47;;;;;;;3.07;2.70;;;0.20;52.00;;;;;;5034908;28;20224;-83
2022/03/12 01:11:16;;;;;;;2.77;2.53;;;0.20;52.00;;;;;;5034772;28;20325;-83
2022/03/12 01:13:44;;;;;;;2.60;2.40;;;0.20;52.20;;;;;;5035259;28;20214;-83
2022/03/12 01:16:12;;;;;;;2.87;2.63;;;0.20;52.00;;;;;;5034362;28;20222;-83
2022/03/12 01:18:41;;;;;;;3.70;2.87;;;0.20;52.10;;;;;;5034885;28;20230;-83
2022/03/12 01:21:14;;;;;;;3.10;2.80;;;0.20;52.50;;;;;;5034570;28;20265;-83
2022/03/12 01:23:42;;;;;;;2.57;2.37;;;0.20;52.50;;;;;;5034902;28;20203;-83
2022/03/12 01:26:12;;;;;;;5.03;3.13;;;0.20;52.80;;;;;;5034761;28;20202;-83
2022/03/12 01:28:40;;;;;;;3.07;2.57;;;0.20;52.40;;;;;;5035030;28;20241;-83
2022/03/12 01:31:09;;;;;;;3.03;2.80;;;0.20;52.40;;;;;;5034399;28;20257;-83
2022/03/12 01:33:37;;;;;;;3.43;2.90;;;0.20;51.80;;;;;;5034902;28;20487;-83
2022/03/12 01:36:07;;;;;;;2.87;2.43;;;0.20;52.90;;;;;;5034479;28;20359;-83
2022/03/12 01:38:47;;;;;;;7.50;3.17;;;0.20;52.30;;;;;;5034653;28;20237;-83
2022/03/12 01:41:16;;;;;;;3.00;2.73;;;0.20;52.60;;;;;;5034341;28;20230;-83
2022/03/12 01:43:45;;;;;;;3.07;2.77;;;0.20;53.30;;;;;;5034404;28;20218;-83
2022/03/12 01:46:14;;;;;;;2.57;2.37;;;0.10;52.20;;;;;;5033941;28;20272;-83
2022/03/12 01:48:47;;;;;;;2.80;2.50;;;0.20;53.90;;;;;;5034348;28;20229;-83
2022/03/12 01:51:16;;;;;;;6.50;3.10;;;0.20;53.30;;;;;;5034177;28;20258;-83
2022/03/12 01:53:47;;;;;;;2.60;2.40;;;0.20;51.70;;;;;;5034165;28;20235;-84
2022/03/12 01:56:15;;;;;;;2.77;2.23;;;0.20;50.80;;;;;;5034617;28;20222;-83
2022/03/12 01:58:47;;;;;;;2.40;2.20;;;0.20;51.40;;;;;;5034286;28;20289;-83
2022/03/12 02:01:16;;;;;;;2.50;2.30;;;0.20;52.40;;;;;;5033873;28;20231;-83
2022/03/12 02:03:44;;;;;;;6.23;2.63;;;0.20;51.50;;;;;;5033845;28;20225;-83
2022/03/12 02:06:19;;;;;;;2.10;2.00;;;0.20;50.90;;;;;;5034092;28;20206;-83
2022/03/12 02:08:49;;;;;;;2.47;2.27;;;0.20;50.90;;;;;;5034382;28;20214;-83
2022/03/12 02:11:27;;;;;;;3.67;3.30;;;0.20;51.00;;;;;;5033473;28;20290;-83
2022/03/12 02:14:00;;;;;;;4.10;2.57;;;0.20;50.40;;;;;;5033769;28;20256;-83
2022/03/12 02:16:30;;;;;;;4.00;3.00;;;0.20;50.40;;;;;;5033599;28;20242;-83
2022/03/12 02:18:58;;;;;;;3.43;2.70;;;0.20;50.80;;;;;;5033156;28;20229;-83
2022/03/12 02:21:34;;;;;;;2.30;2.20;;;0.20;50.80;;;;;;5034269;28;20317;-83
2022/03/12 02:24:06;;;;;;;3.57;2.90;;;0.10;50.80;;;;;;5033893;28;20224;-83
2022/03/12 02:26:34;;;;;;;2.93;2.53;;;0.10;50.80;;;;;;5033939;28;20230;-83
2022/03/12 02:29:06;;;;;;;3.50;2.67;;;0.10;52.30;;;;;;5033793;28;20294;-83
2022/03/12 02:31:34;;;;;;;3.00;2.80;;;0.10;52.40;;;;;;5033498;28;20305;-83
2022/03/12 02:34:04;;;;;;;3.93;3.07;;;0.00;54.30;;;;;;5033569;28;20260;-83
2022/03/12 02:36:32;;;;;;;3.23;2.93;;;-0.10;54.40;;;;;;5033382;28;20390;-83
2022/03/12 02:39:04;;;;;;;5.53;3.77;;;-0.20;53.70;;;;;;5033761;28;20244;-83
2022/03/12 02:41:35;;;;;;;6.37;3.13;;;-0.20;54.20;;;;;;5033596;28;20234;-83
2022/03/12 02:44:04;;;;;;;4.63;3.63;;;-0.40;55.10;;;;;;5033763;28;20226;-83
2022/03/12 02:46:32;;;;;;;4.93;3.73;;;-0.40;55.30;;;;;;5033203;28;20257;-83
2022/03/12 02:49:01;;;;;;;5.20;3.70;;;-0.40;58.20;;;;;;5033709;28;20207;-83
2022/03/12 02:51:29;;;;;;;3.40;3.10;;;-0.50;56.60;;;;;;5033131;28;20261;-83
2022/03/12 02:53:57;;;;;;;4.00;3.60;;;-0.60;57.90;;;;;;5033121;28;20238;-83
2022/03/12 02:56:26;;;;;;;3.67;3.27;;;-0.60;58.90;;;;;;5032874;28;20318;-83
2022/03/12 02:58:56;;;;;;;3.47;3.17;;;-0.70;59.10;;;;;;5032997;28;20292;-84
2022/03/12 03:01:26;;;;;;;4.93;3.50;;;-0.80;59.60;;;;;;5033099;28;20310;-83
2022/03/12 03:03:56;;;;;;;3.30;2.97;;;-0.90;60.10;;;;;;5033430;28;20210;-83
2022/03/12 03:06:27;;;;;;;3.70;3.40;;;-1.00;59.00;;;;;;5033113;28;20252;-83
2022/03/12 03:08:57;;;;;;;6.20;4.30;;;-1.00;58.60;;;;;;5033167;28;20238;-83
2022/03/12 03:11:29;;;;;;;3.47;3.17;;;-1.10;58.60;;;;;;5032767;28;20312;-83
2022/03/12 03:13:58;;;;;;;4.13;3.57;;;-1.10;57.80;;;;;;5033319;28;20241;-83
2022/03/12 03:16:29;;;;;;;3.33;3.00;;;-1.20;58.10;;;;;;5033090;28;20246;-84
2022/03/12 03:18:58;;;;;;;3.60;3.30;;;-1.20;57.80;;;;;;5032656;28;20297;-83
2022/03/12 03:21:28;;;;;;;3.97;3.50;;;-1.20;58.30;;;;;;5032526;28;20266;-83
2022/03/12 03:23:56;;;;;;;5.53;4.13;;;-1.30;57.30;;;;;;5033008;28;20280;-83
2022/03/12 03:26:52;;;;;;;4.43;3.40;;;-1.30;56.60;;;;;;5032383;28;20230;-83
2022/03/12 03:29:24;;;;;;;3.97;3.60;;;-1.40;59.10;;;;;;5032901;28;20230;-83
2022/03/12 03:31:52;;;;;;;5.93;3.90;;;-1.50;57.40;;;;;;5032506;28;20254;-83
2022/03/12 03:34:21;;;;;;;6.03;4.17;;;-1.50;57.40;;;;;;5032809;28;20237;-83
2022/03/12 03:36:50;;;;;;;7.07;3.70;;;-1.50;57.80;;;;;;5032833;28;20294;-83
2022/03/12 03:39:19;;;;;;;5.67;4.13;;;-1.50;58.20;;;;;;5032545;28;20231;-83
2022/03/12 03:41:48;;;;;;;3.97;3.07;;;-1.50;57.70;;;;;;5032495;28;20256;-83
2022/03/12 03:44:23;;;;;;;3.50;3.20;;;-1.50;58.40;;;;;;5032509;28;20241;-83
2022/03/12 03:46:51;;;;;;;7.23;4.13;;;-1.50;57.70;;;;;;5032641;28;20236;-83
2022/03/12 03:49:20;;;;;;;5.50;3.87;;;-1.50;57.30;;;;;;5032875;28;20279;-83
2022/03/12 03:51:48;;;;;;;4.60;3.43;;;-1.40;57.00;;;;;;5032428;28;20226;-83
2022/03/12 03:54:17;;;;;;;5.60;3.97;;;-1.30;56.60;;;;;;5032134;28;20237;-83
2022/03/12 03:56:45;;;;;;;5.00;3.40;;;-1.30;56.30;;;;;;5032524;28;20317;-83
2022/03/12 03:59:14;;;;;;;9.43;3.37;;;-1.30;56.70;;;;;;5032390;28;20245;-83
2022/03/12 04:01:45;;;;;;;9.53;3.67;;;-1.20;56.50;;;;;;5031864;28;20251;-83
2022/03/12 04:04:13;;;;;;;5.77;3.97;;;-1.20;56.90;;;;;;5032139;28;20210;-83
2022/03/12 04:06:42;;;;;;;3.20;2.90;;;-1.20;56.90;;;;;;5032082;28;20229;-83
2022/03/12 04:09:11;;;;;;;5.73;3.67;;;-1.20;56.40;;;;;;5032090;28;20366;-83
2022/03/12 04:11:42;;;;;;;5.67;3.80;;;-1.30;56.80;;;;;;5032188;28;20265;-83
2022/03/12 04:14:10;;;;;;;3.90;3.03;;;-1.30;56.40;;;;;;5032846;28;20245;-83
2022/03/12 04:16:43;;;;;;;5.53;3.13;;;-1.30;56.30;;;;;;5032292;28;20253;-83
2022/03/12 04:19:14;;;;;;;3.07;2.77;;;-1.40;55.80;;;;;;5032100;28;20212;-83
2022/03/12 04:21:43;;;;;;;5.03;3.60;;;-1.40;56.20;;;;;;5032247;28;20226;-83
2022/03/12 04:24:13;;;;;;;4.23;3.30;;;-1.40;55.70;;;;;;5032403;28;20210;-83
2022/03/12 04:26:42;;;;;;;3.87;3.17;;;-1.40;55.50;;;;;;5032115;28;20215;-83
2022/03/12 04:29:11;;;;;;;2.67;2.47;;;-1.40;55.80;;;;;;5032260;28;20253;-83
2022/03/12 04:31:39;;;;;;;3.40;3.10;;;-1.40;54.80;;;;;;5034106;28;20230;-83
2022/03/12 04:34:07;;;;;;;3.40;3.10;;;-1.40;54.80;;;;;;5031967;28;20210;-83
2022/03/12 04:36:38;;;;;;;9.93;3.53;;;-1.50;54.40;;;;;;5032305;28;20261;-83
2022/03/12 04:39:06;;;;;;;4.27;2.87;;;-1.50;54.20;;;;;;5032189;28;20234;-83
2022/03/12 04:41:36;;;;;;;3.17;2.90;;;-1.50;55.30;;;;;;5031733;28;20292;-83
2022/03/12 04:44:06;;;;;;;4.77;2.83;;;-1.50;54.30;;;;;;5035561;28;20234;-83
2022/03/12 04:46:35;;;;;;;3.70;3.40;;;-1.40;54.60;;;;;;5035394;28;20268;-83
2022/03/12 04:49:05;;;;;;;5.13;3.83;;;-1.50;54.10;;;;;;5035920;28;20234;-82
2022/03/12 04:51:34;;;;;;;5.00;3.07;;;-1.50;54.30;;;;;;5034968;28;20272;-83
2022/03/12 04:54:04;;;;;;;6.63;2.90;;;-1.50;54.50;;;;;;5035638;28;20337;-85
2022/03/12 04:56:32;;;;;;;5.40;2.63;;;-1.40;58.00;;;;;;5035329;28;20222;-83
2022/03/12 04:59:01;;;;;;;4.27;3.70;;;-1.50;54.40;;;;;;5035112;28;20249;-83
2022/03/12 05:01:29;;;;;;;4.33;3.20;;;-1.50;54.50;;;;;;5035321;28;20309;-83
2022/03/12 05:03:58;;;;;;;6.87;3.73;;;-1.50;53.90;;;;;;5035446;28;20222;-83
2022/03/12 05:06:26;;;;;;;4.83;3.17;;;-1.50;53.90;;;;;;5035424;28;20336;-83
2022/03/12 05:08:57;;;;;;;3.97;3.33;;;-1.60;53.60;;;;;;5035180;28;20210;-83
2022/03/12 05:11:27;;;;;;;4.43;3.40;;;-1.50;53.60;;;;;;5034993;28;20226;-85
2022/03/12 05:13:55;;;;;;;5.43;3.27;;;-1.60;53.30;;;;;;5035448;28;20202;-83
2022/03/12 05:16:23;;;;;;;5.80;3.17;;;-1.60;53.30;;;;;;5035127;28;20228;-83
2022/03/12 05:18:52;;;;;;;6.90;3.60;;;-1.60;53.80;;;;;;5035448;28;20272;-83
2022/03/12 05:21:20;;;;;;;2.93;2.63;;;-1.60;54.80;;;;;;5034741;28;20226;-83
2022/03/12 05:23:49;;;;;;;3.33;2.87;;;-1.60;53.50;;;;;;5035102;28;20289;-85
2022/03/12 05:26:17;;;;;;;3.13;2.83;;;-1.60;53.30;;;;;;5035084;28;20207;-83
2022/03/12 05:28:47;;;;;;;5.63;3.10;;;-1.60;53.90;;;;;;5034632;28;20202;-83
2022/03/12 05:31:17;;;;;;;3.30;3.00;;;-1.70;53.80;;;;;;5034865;28;20314;-83
2022/03/12 05:33:46;;;;;;;3.57;2.37;;;-1.60;54.50;;;;;;5034899;28;20213;-83
2022/03/12 05:36:15;;;;;;;3.83;2.97;;;-1.60;54.20;;;;;;5034735;28;20233;-83
2022/03/12 05:38:43;;;;;;;3.67;3.03;;;-1.70;54.60;;;;;;5034407;28;20254;-83
2022/03/12 05:41:12;;;;;;;3.57;2.87;;;-1.70;54.20;;;;;;5034458;28;20241;-83
2022/03/12 05:43:45;;;;;;;2.83;2.60;;;-1.70;53.90;;;;;;5034606;28;20218;-83
2022/03/12 05:46:20;;;;;;;8.10;3.07;;;-1.70;54.20;;;;;;5034889;28;20301;-83
2022/03/12 05:48:49;;;;;;;2.87;2.40;;;-1.60;54.30;;;;;;5034510;28;20202;-83
2022/03/12 05:51:17;;;;;;;5.33;3.27;;;-1.70;54.10;;;;;;5034470;28;20230;-83
2022/03/12 05:53:47;;;;;;;3.30;3.00;;;-1.60;54.20;;;;;;5032552;28;20207;-83
2022/03/12 05:56:15;;;;;;;5.70;2.90;;;-1.70;53.50;;;;;;5033980;28;20241;-83
2022/03/12 05:58:43;;;;;;;3.70;3.00;;;-1.60;54.80;;;;;;5034321;28;20257;-83
2022/03/12 06:01:12;;;;;;;3.40;3.10;;;-1.60;54.20;;;;;;5034052;28;20249;-83
2022/03/12 06:03:42;;;;;;;3.03;2.73;;;-1.60;54.00;;;;;;5034098;28;20230;-83
2022/03/12 06:06:10;;;;;;;2.10;1.97;;;-1.60;53.60;;;;;;5034119;28;20292;-83
2022/03/12 06:08:40;;;;;;;5.27;3.20;;;-1.60;53.80;;;;;;5033920;28;20245;-83
2022/03/12 06:11:09;;;;;;;4.07;3.07;;;-1.50;54.00;;;;;;5034095;28;20257;-83
2022/03/12 06:13:39;;;;;;;3.13;2.70;;;-1.50;54.10;;;;;;5034452;28;20207;-83
2022/03/12 06:16:08;;;;;;;3.30;2.97;;;-1.50;53.90;;;;;;5033843;28;20226;-83
2022/03/12 06:18:38;;;;;;;3.43;2.73;;;-1.40;53.50;;;;;;5033766;28;20258;-83
2022/03/12 06:21:08;;;;;;;5.27;3.10;;;-1.40;53.80;;;;;;5033439;28;20226;-83
2022/03/12 06:23:36;;;;;;;5.13;2.97;;;-1.40;53.30;;;;;;5034008;28;20301;-83
2022/03/12 06:26:14;;;;;;;4.43;3.07;;;-1.40;53.30;;;;;;5034044;28;20234;-83
2022/03/12 06:28:43;;;;;;;3.87;2.70;;;-1.40;53.50;;;;;;5034090;28;20206;-83
2022/03/12 06:31:12;;;;;;;3.77;2.53;;;-1.30;54.00;;;;;;5033460;28;20245;-83
2022/03/12 06:33:42;;;;;;;3.33;3.03;;;-1.30;53.20;;;;;;5033354;28;20281;-83
2022/03/12 06:36:12;;;;;;;5.07;3.20;;;-1.20;53.50;;;;;;5033672;28;20210;-83
2022/03/12 06:38:41;;;;;;;2.93;2.50;;;-1.20;52.90;;;;;;5033556;28;20223;-83
2022/03/12 06:41:09;;;;;;;4.27;2.47;;;-1.20;53.70;;;;;;5033425;28;20337;-84
2022/03/12 06:43:42;;;;;;;3.10;2.63;;;-1.10;53.20;;;;;;5033325;28;20285;-83
2022/03/12 06:46:15;;;;;;;2.87;2.43;;;-1.10;53.00;;;;;;5033274;28;20292;-84
2022/03/12 06:48:45;;;;;;;3.83;3.17;;;-1.00;53.30;;;;;;5033412;28;20206;-83
2022/03/12 06:51:16;;;;;;;6.43;3.27;;;-1.00;54.50;;;;;;5033303;28;20250;-83
2022/03/12 06:53:44;;;;;;;4.20;2.73;;;-0.90;53.10;;;;;;5033534;28;20215;-83
2022/03/12 06:56:13;;;;;;;4.83;3.27;;;-0.90;53.90;;;;;;5033108;28;20202;-83
2022/03/12 06:58:41;;;;;;;9.33;3.33;;;-0.80;53.10;;;;;;5032819;28;20314;-83
2022/03/12 07:01:09;;;;;;;3.93;2.50;;;-0.80;54.40;;;;;;5032928;28;20265;-83
2022/03/12 07:03:38;;;;;;;4.87;2.83;;;-0.70;52.90;;;;;;5032994;28;20286;-83
2022/03/12 07:06:07;;;;;;;2.97;2.40;;;-0.70;51.80;;;;;;5032657;28;20294;-84
2022/03/12 07:08:37;;;;;;;3.23;2.93;;;-0.60;52.40;;;;;;5033205;28;20264;-84
2022/03/12 07:11:06;;;;;;;3.13;2.83;;;-0.60;52.00;;;;;;5032439;28;20268;-83
2022/03/12 07:13:36;;;;;;;4.40;3.10;;;-0.50;51.70;;;;;;5032951;28;20240;-83
2022/03/12 07:16:05;;;;;;;6.10;3.60;;;-0.50;51.50;;;;;;5032948;28;20203;-85
2022/03/12 07:18:33;;;;;;;3.50;2.73;;;-0.40;51.60;;;;;;5032528;28;20226;-85
2022/03/12 07:21:02;;;;;;;3.60;3.00;;;-0.40;51.00;;;;;;5032777;28;20229;-84
2022/03/12 07:23:30;;;;;;;2.93;2.67;;;-0.30;51.90;;;;;;5032931;28;20245;-84
2022/03/12 07:26:00;;;;;;;2.67;2.17;;;-0.20;51.70;;;;;;5032666;28;20214;-83
2022/03/12 07:28:31;;;;;;;5.13;2.53;;;-0.20;51.80;;;;;;5033014;28;20286;-84
2022/03/12 07:31:00;;;;;;;3.00;2.63;;;-0.10;52.10;;;;;;5032412;28;20253;-83
2022/03/12 07:33:29;;;;;;;4.00;2.87;;;-0.10;50.60;;;;;;5032873;28;20209;-84
2022/03/12 07:35:57;;;;;;;2.97;2.60;;;0.00;51.90;;;;;;5032728;28;20237;-83
2022/03/12 07:38:25;;;;;;;3.27;2.97;;;0.10;51.00;;;;;;5032211;28;20314;-83
2022/03/12 07:40:54;;;;;;;7.47;3.10;;;0.10;50.30;;;;;;5032294;28;20249;-84
2022/03/12 07:43:23;;;;;;;2.93;2.63;;;0.20;50.80;;;;;;5032414;28;20245;-83
2022/03/12 07:45:52;;;;;;;3.67;3.33;;;0.30;51.50;;;;;;5032257;28;20238;-83
2022/03/12 07:48:21;;;;;;;4.57;2.73;;;0.40;50.70;;;;;;5032481;28;20214;-83
2022/03/12 07:51:07;;;;;;;5.00;3.13;;;0.40;49.70;;;;;;5032387;28;20286;-83
2022/03/12 07:53:36;;;;;;;5.67;2.97;;;0.50;51.00;;;;;;5032622;28;20266;-83
2022/03/12 07:56:06;;;;;;;2.70;2.37;;;0.60;49.80;;;;;;5032446;28;20214;-83
2022/03/12 07:58:36;;;;;;;3.10;2.80;;;0.60;49.40;;;;;;5032268;28;20285;-83
2022/03/12 08:01:05;;;;;;;4.17;2.43;;;0.60;49.90;;;;;;5032040;28;20234;-83
2022/03/12 08:03:35;;;;;;;3.37;3.07;;;0.60;49.20;;;;;;5032414;28;20206;-83
2022/03/12 08:06:05;;;;;;;3.77;2.60;;;0.70;49.80;;;;;;5032371;28;20202;-83
2022/03/12 08:08:33;;;;;;;4.07;3.20;;;0.80;48.90;;;;;;5032833;28;20199;-84
2022/03/12 08:13:49;;;;;;;3.33;3.03;;;1.00;49.10;;;;;;5032045;28;20233;-83
2022/03/12 08:16:17;;;;;;;3.97;3.03;;;1.10;49.10;;;;;;5032010;28;20294;-83
2022/03/12 08:18:46;;;;;;;3.43;2.93;;;1.20;49.40;;;;;;5035292;28;20254;-83
2022/03/12 08:21:15;;;;;;;5.67;3.03;;;1.30;49.30;;;;;;5035832;28;20318;-83
2022/03/12 08:23:45;;;;;;;4.27;2.93;;;1.40;49.30;;;;;;5036025;28;20210;-83
2022/03/12 08:26:14;;;;;;;3.33;3.00;;;1.60;48.80;;;;;;5035698;28;20206;-83
2022/03/12 08:28:42;;;;;;;8.80;3.63;;;1.60;49.80;;;;;;5037237;28;20234;-83
2022/03/12 08:31:12;;;;;;;4.03;3.23;;;1.60;48.40;;;;;;5035856;28;20309;-83
2022/03/12 08:33:41;;;;;;;2.60;2.40;;;1.70;49.90;;;;;;5035877;28;20214;-83
2022/03/12 08:36:09;;;;;;;4.30;2.90;;;1.90;49.80;;;;;;5035743;28;20262;-82
2022/03/12 08:38:38;;;;;;;6.63;2.97;;;2.10;48.80;;;;;;5035466;28;20269;-82
2022/03/12 08:41:08;;;;;;;3.15;2.85;;;2.10;48.80;;;;;;5035791;28;20310;-83
2022/03/12 08:43:37;;;;;;;4.30;2.30;;;2.20;49.10;;;;;;5035861;28;20245;-82
2022/03/12 08:46:07;;;;;;;3.60;3.25;;;2.30;48.50;;;;;;5035633;28;20305;-82
2022/03/12 08:48:38;;;;;;;3.23;2.93;;;2.40;48.80;;;;;;5036129;28;20348;-83
2022/03/12 08:51:06;;;;;;;3.55;3.17;;;2.50;48.40;;;;;;5035319;28;20321;-83
2022/03/12 08:53:35;;;;;;;3.38;3.03;;;2.60;49.00;;;;;;5035132;28;20210;-83
2022/03/12 08:56:04;;;;;;;3.97;3.33;;;2.70;48.50;;;;;;5035687;28;20269;-83
2022/03/12 08:58:33;;;;;;;3.58;3.28;;;3.10;47.90;;;;;;5035485;28;20298;-82
2022/03/12 09:01:06;;;;;;;4.07;3.67;;;3.30;48.00;;;;;;5034960;28;20286;-83
2022/03/12 09:03:36;;;;;;;4.18;3.15;;;3.60;48.00;;;;;;5035201;28;20285;-83
2022/03/12 09:06:05;;;;;;;5.18;3.45;;;3.80;47.60;;;;;;5035325;28;20203;-83
2022/03/12 09:08:34;;;;;;;9.15;4.25;;;4.30;47.50;;;;;;5035573;28;20215;-82
2022/03/12 09:11:03;;;;;;;4.50;3.55;;;5.00;46.30;;;;;;5035154;28;20234;-83
2022/03/12 09:13:31;;;;;;;3.40;2.88;;;5.80;46.10;;;;;;5034758;28;20233;-82
2022/03/12 09:15:59;;;;;;;3.30;2.97;;;6.20;44.50;;;;;;5035137;28;20237;-82
2022/03/12 09:18:28;;;;;;;3.75;3.13;;;6.50;43.30;;;;;;5035132;28;20214;-82
2022/03/12 09:20:58;;;;;;;7.35;4.03;;;7.10;43.70;;;;;;5035107;28;20239;-82
2022/03/12 09:23:26;;;;;;;4.10;3.70;;;7.50;41.90;;;;;;5035437;28;20211;-82
2022/03/12 09:25:55;;;;;;;3.72;3.42;;;8.10;42.40;;;;;;5035290;28;20203;-83
2022/03/12 09:28:23;;;;;;;4.38;3.50;;;8.40;41.50;;;;;;5034588;28;20268;-83
2022/03/12 09:30:52;;;;;;;3.50;3.28;;;8.70;42.30;;;;;;5034262;28;20246;-83
2022/03/12 09:33:21;;;;;;;4.60;3.90;;;9.00;42.40;;;;;;5034725;28;20245;-82
2022/03/12 09:35:51;;;;;;;7.38;4.25;;;8.80;40.30;;;;;;5034810;28;20207;-82
2022/03/12 09:38:20;;;;;;;3.08;2.78;;;8.90;41.00;;;;;;5034569;28;20293;-82
2022/03/12 09:40:49;;;;;;;3.88;3.53;;;9.30;41.00;;;;;;5034336;28;20257;-82
2022/03/12 09:43:18;;;;;;;3.53;3.22;;;9.40;38.20;;;;;;5034490;28;20214;-82
2022/03/12 09:45:47;;;;;;;4.82;4.15;;;9.00;37.20;;;;;;5034035;28;20246;-83
2022/03/12 09:48:20;;;;;;;3.80;3.50;;;9.20;38.20;;;;;;5034634;28;20214;-83
2022/03/12 09:50:48;;;;;;;3.92;3.22;;;9.50;38.60;;;;;;5034113;28;20265;-82
2022/03/12 09:53:16;;;;;;;4.22;3.78;;;9.80;37.60;;;;;;5034469;28;20230;-82
2022/03/12 09:55:46;;;;;;;3.58;3.22;;;9.70;36.80;;;;;;5034138;28;20237;-82
2022/03/12 09:58:14;;;;;;;9.77;4.15;;;9.30;37.40;;;;;;5033964;28;20270;-82
2022/03/12 10:00:44;;;;;;;3.65;3.35;;;9.60;37.50;;;;;;5033647;28;20233;-83
2022/03/12 10:03:12;;;;;;;4.00;3.63;;;10.10;36.60;;;;;;5034565;28;20285;-83
2022/03/12 10:05:41;;;;;;;6.57;4.30;;;10.60;38.20;;;;;;5034182;28;20290;-82
2022/03/12 10:08:09;;;;;;;4.57;3.83;;;11.10;37.70;;;;;;5034053;28;20223;-83
2022/03/12 10:10:38;;;;;;;5.40;4.20;;;11.30;36.70;;;;;;5033547;28;20253;-82
2022/03/12 10:13:07;;;;;;;3.60;3.30;;;11.30;35.60;;;;;;5033933;28;20202;-82
2022/03/12 10:15:36;;;;;;;4.03;3.72;;;11.20;35.90;;;;;;5033776;28;20241;-82
2022/03/12 10:18:05;;;;;;;3.78;3.45;;;10.50;34.60;;;;;;5033887;28;20213;-83
2022/03/12 10:20:33;;;;;;;4.07;3.67;;;10.10;34.90;;;;;;5033581;28;20317;-82
2022/03/12 10:23:02;;;;;;;13.75;3.75;;;9.80;35.90;;;;;;5033546;28;20298;-82
2022/03/12 10:25:32;;;;;;;4.68;3.35;;;9.50;37.00;;;;;;5033742;28;20290;-82
2022/03/12 10:28:00;;;;;;;3.65;3.08;;;9.50;36.40;;;;;;5033947;28;20229;-82
2022/03/12 10:30:30;;;;;;;4.57;4.15;;;9.60;36.20;;;;;;5033393;28;20244;-82
2022/03/12 10:32:58;;;;;;;8.00;3.83;;;9.90;36.80;;;;;;5033757;28;20210;-83
2022/03/12 10:35:33;;;;;;;3.78;3.47;;;9.80;35.90;;;;;;5033076;28;20293;-83
2022/03/12 10:38:02;;;;;;;4.40;4.00;;;10.40;35.00;;;;;;5034060;28;20238;-84
2022/03/12 10:40:31;;;;;;;4.07;3.33;;;10.90;34.50;;;;;;5032551;28;20234;-83
2022/03/12 10:43:05;;;;;;;3.33;3.10;;;10.80;34.10;;;;;;5033552;28;20206;-83
2022/03/12 10:45:42;;;;;;;3.65;3.25;;;11.10;34.20;;;;;;5033567;28;20315;-84
2022/03/12 10:48:12;;;;;;;6.40;3.17;;;11.60;35.30;;;;;;5033391;28;20233;-84
2022/03/12 10:50:43;;;;;;;4.68;4.20;;;11.90;32.70;;;;;;5033233;28;20249;-83
2022/03/12 10:53:14;;;;;;;23.33;5.20;;;11.30;33.60;;;;;;5033355;28;20237;-84
2022/03/12 10:55:44;;;;;;;4.32;3.85;;;11.40;32.90;;;;;;5033222;28;20210;-84
2022/03/12 10:58:15;;;;;;;4.55;3.75;;;11.70;33.00;;;;;;5033067;28;20241;-84
2022/03/12 11:00:48;;;;;;;6.60;3.80;;;12.00;34.00;;;;;;5032805;28;20299;-84
2022/03/12 11:03:20;;;;;;;4.32;3.92;;;12.30;34.50;;;;;;5032971;28;20210;-84
2022/03/12 11:05:50;;;;;;;6.60;4.32;;;12.40;33.80;;;;;;5033040;28;20237;-84
2022/03/12 11:08:22;;;;;;;9.07;3.83;;;12.60;34.60;;;;;;5033094;28;20218;-84
2022/03/12 11:10:58;;;;;;;4.28;3.88;;;12.70;34.80;;;;;;5032685;28;20222;-83
2022/03/12 11:13:38;;;;;;;4.80;3.92;;;12.80;32.00;;;;;;5033109;28;20210;-83
2022/03/12 11:16:16;;;;;;;4.15;3.75;;;12.40;31.30;;;;;;5032823;28;20300;-84
2022/03/12 11:19:07;;;;;;;3.60;3.30;;;12.40;31.30;;;;;;5032795;28;20275;-83
2022/03/12 11:21:40;;;;;;;3.92;3.55;;;12.00;31.50;;;;;;5032319;28;20237;-84
2022/03/12 11:24:15;;;;;;;3.30;3.00;;;11.70;33.10;;;;;;5032660;28;20257;-84
2022/03/12 11:26:48;;;;;;;5.00;3.30;;;12.00;32.00;;;;;;5032647;28;20205;-83
2022/03/12 11:29:17;;;;;;;5.40;4.13;;;12.00;32.30;;;;;;5032617;28;20241;-84
2022/03/12 11:31:49;;;;;;;4.03;3.30;;;12.40;32.20;;;;;;5031749;28;20249;-84
2022/03/12 11:34:20;;;;;;;3.45;3.15;;;12.50;31.60;;;;;;5032553;28;20212;-83
2022/03/12 11:37:01;;;;;;;5.30;4.20;;;12.90;31.50;;;;;;5032980;28;20207;-83
2022/03/12 11:39:32;;;;;;;7.30;4.35;;;13.20;30.90;;;;;;5032717;28;20198;-83
2022/03/12 11:42:10;;;;;;;4.97;4.07;;;13.00;30.70;;;;;;5032234;28;20252;-83
2022/03/12 11:44:44;;;;;;;3.45;3.15;;;12.80;30.80;;;;;;5032524;28;20218;-83
2022/03/12 11:47:16;;;;;;;3.15;2.90;;;12.40;30.30;;;;;;5032736;28;20205;-83
2022/03/12 11:49:45;;;;;;;3.90;3.50;;;12.50;30.50;;;;;;5032430;28;20206;-83
2022/03/12 11:52:15;;;;;;;3.65;3.35;;;12.30;30.00;;;;;;5031999;28;20233;-83
2022/03/12 11:54:45;;;;;;;5.57;2.97;;;12.30;30.80;;;;;;5032164;28;20228;-84
2022/03/12 11:57:20;;;;;;;4.10;3.70;;;12.40;31.10;;;;;;5032232;28;20274;-83
2022/03/12 11:59:49;;;;;;;3.70;3.40;;;12.70;30.20;;;;;;5032252;28;20244;-82
2022/03/12 12:02:30;;;;;;;3.67;3.13;;;12.80;30.40;;;;;;5032028;28;20221;-81
2022/03/12 12:05:02;;;;;;;4.30;3.80;;;12.40;30.70;;;;;;5032010;28;20209;-82
2022/03/12 12:07:36;;;;;;;4.05;3.65;;;12.50;30.40;;;;;;5032482;28;20237;-82
2022/03/12 12:10:07;;;;;;;3.33;3.00;;;12.60;29.60;;;;;;5032183;28;20234;-82
2022/03/12 12:12:43;;;;;;;2.97;2.72;;;12.50;29.80;;;;;;5032415;28;20205;-82
2022/03/12 12:15:15;;;;;;;5.97;3.08;;;12.40;29.90;;;;;;5032706;28;20219;-82
2022/03/12 12:17:46;;;;;;;5.38;3.75;;;12.60;31.00;;;;;;5031944;28;20210;-82
2022/03/12 12:20:15;;;;;;;3.28;2.97;;;12.50;29.50;;;;;;5031908;28;20249;-82
2022/03/12 12:22:43;;;;;;;6.45;3.45;;;12.70;29.90;;;;;;5031773;28;20298;-81
2022/03/12 12:25:13;;;;;;;3.83;3.42;;;12.90;29.20;;;;;;5032202;28;20199;-82
2022/03/12 12:27:44;;;;;;;4.22;3.22;;;12.70;29.00;;;;;;5031667;28;20269;-81
2022/03/12 12:30:16;;;;;;;3.08;2.75;;;12.80;29.60;;;;;;5032693;28;20234;-82
2022/03/12 12:32:48;;;;;;;2.53;2.33;;;12.40;29.20;;;;;;5032099;28;20346;-82
2022/03/12 12:35:18;;;;;;;3.67;3.38;;;12.70;29.70;;;;;;5031918;28;20206;-83
2022/03/12 12:37:56;;;;;;;4.30;2.95;;;12.90;29.80;;;;;;5031799;28;20273;-82
2022/03/12 12:40:31;;;;;;;4.95;3.22;;;13.50;29.30;;;;;;5031469;28;20230;-82
2022/03/12 12:43:05;;;;;;;4.55;3.63;;;13.50;29.00;;;;;;5031983;28;20213;-83
2022/03/12 12:45:37;;;;;;;4.38;3.25;;;12.90;28.60;;;;;;5031650;28;20210;-82
2022/03/12 12:48:14;;;;;;;4.05;3.65;;;12.80;29.20;;;;;;5031863;28;20237;-83
2022/03/12 12:51:03;;;;;;;3.55;3.25;;;12.90;29.60;;;;;;5031154;28;20253;-82
2022/03/12 12:53:39;;;;;;;4.10;3.22;;;13.10;29.20;;;;;;5032149;28;20211;-83
2022/03/12 12:56:26;;;;;;;3.10;2.80;;;13.30;29.20;;;;;;5031674;28;20238;-83
2022/03/12 12:59:11;;;;;;;3.22;2.92;;;12.90;28.10;;;;;;5031639;28;20217;-83
2022/03/12 13:01:53;;;;;;;3.55;3.25;;;12.80;28.50;;;;;;5031467;28;20230;-84
2022/03/12 13:04:49;;;;;;;3.83;3.42;;;13.00;28.60;;;;;;5034556;28;20214;-83
2022/03/12 13:07:22;;;;;;;2.90;2.70;;;13.10;28.60;;;;;;5035508;28;20315;-83
2022/03/12 13:10:02;;;;;;;3.40;2.92;;;12.70;28.30;;;;;;5035224;28;20272;-83